sensor_id;sensor_type;location;lat;lon;timestamp;pressure;altitude;pressure_sealevel;temperature
71640;BMP280;60912;48.968;10.124;2023-06-01T00:01:39;96838.34;;;14.27
71640;BMP280;60912;48.968;10.124;2023-06-01T00:04:05;96841.19;;;14.44
71640;BMP280;60912;48.968;10.124;2023-06-01T00:06:32;96836.31;;;14.60
71640;BMP280;60912;48.968;10.124;2023-06-01T00:08:57;96831.41;;;14.68
71640;BMP280;60912;48.968;10.124;2023-06-01T00:11:23;96838.03;;;14.72
71640;BMP280;60912;48.968;10.124;2023-06-01T00:13:49;96831.03;;;14.71
71640;BMP280;60912;48.968;10.124;2023-06-01T00:16:15;96833.97;;;14.73
71640;BMP280;60912;48.968;10.124;2023-06-01T00:18:41;96828.88;;;14.62
71640;BMP280;60912;48.968;10.124;2023-06-01T00:21:06;96830.75;;;14.60
71640;BMP280;60912;48.968;10.124;2023-06-01T00:23:32;96829.56;;;14.70
71640;BMP280;60912;48.968;10.124;2023-06-01T00:25:59;96828.91;;;14.80
71640;BMP280;60912;48.968;10.124;2023-06-01T00:28:25;96839.88;;;14.78
71640;BMP280;60912;48.968;10.124;2023-06-01T00:30:51;96832.28;;;14.78
71640;BMP280;60912;48.968;10.124;2023-06-01T00:33:18;96828.88;;;14.62
71640;BMP280;60912;48.968;10.124;2023-06-01T00:35:44;96835.75;;;14.29
71640;BMP280;60912;48.968;10.124;2023-06-01T00:38:09;96842.84;;;14.15
71640;BMP280;60912;48.968;10.124;2023-06-01T00:40:35;96832.72;;;14.10
71640;BMP280;60912;48.968;10.124;2023-06-01T00:43:00;96836.59;;;14.07
71640;BMP280;60912;48.968;10.124;2023-06-01T00:45:25;96834.47;;;13.90
71640;BMP280;60912;48.968;10.124;2023-06-01T00:47:51;96825.63;;;13.84
71640;BMP280;60912;48.968;10.124;2023-06-01T00:50:17;96830.38;;;13.91
71640;BMP280;60912;48.968;10.124;2023-06-01T00:52:42;96822.63;;;13.97
71640;BMP280;60912;48.968;10.124;2023-06-01T00:55:09;96823.78;;;13.87
71640;BMP280;60912;48.968;10.124;2023-06-01T00:57:35;96820.84;;;13.77
71640;BMP280;60912;48.968;10.124;2023-06-01T01:00:03;96820.50;;;13.73
71640;BMP280;60912;48.968;10.124;2023-06-01T01:02:38;96821.50;;;13.53
71640;BMP280;60912;48.968;10.124;2023-06-01T01:05:08;96821.69;;;13.32
71640;BMP280;60912;48.968;10.124;2023-06-01T01:07:43;96817.84;;;13.20
71640;BMP280;60912;48.968;10.124;2023-06-01T01:10:38;96817.31;;;13.14
71640;BMP280;60912;48.968;10.124;2023-06-01T01:13:19;96812.31;;;13.20
71640;BMP280;60912;48.968;10.124;2023-06-01T01:15:53;96810.63;;;13.32
71640;BMP280;60912;48.968;10.124;2023-06-01T01:18:33;96816.72;;;13.38
71640;BMP280;60912;48.968;10.124;2023-06-01T01:21:02;96817.28;;;13.37
71640;BMP280;60912;48.968;10.124;2023-06-01T01:26:40;96816.94;;;13.17
71640;BMP280;60912;48.968;10.124;2023-06-01T01:29:09;96813.81;;;13.21
71640;BMP280;60912;48.968;10.124;2023-06-01T01:31:38;96809.56;;;13.20
71640;BMP280;60912;48.968;10.124;2023-06-01T01:34:04;96808.47;;;13.23
71640;BMP280;60912;48.968;10.124;2023-06-01T01:36:31;96814.16;;;13.25
71640;BMP280;60912;48.968;10.124;2023-06-01T01:38:57;96811.78;;;13.21
71640;BMP280;60912;48.968;10.124;2023-06-01T01:41:22;96804.00;;;13.20
71640;BMP280;60912;48.968;10.124;2023-06-01T01:43:48;96810.84;;;13.19
71640;BMP280;60912;48.968;10.124;2023-06-01T01:46:25;96797.59;;;13.02
71640;BMP280;60912;48.968;10.124;2023-06-01T01:48:58;96807.00;;;12.99
71640;BMP280;60912;48.968;10.124;2023-06-01T01:51:33;96795.94;;;12.99
71640;BMP280;60912;48.968;10.124;2023-06-01T01:54:02;96795.75;;;13.05
71640;BMP280;60912;48.968;10.124;2023-06-01T01:56:29;96792.25;;;13.04
71640;BMP280;60912;48.968;10.124;2023-06-01T01:58:56;96794.81;;;13.10
71640;BMP280;60912;48.968;10.124;2023-06-01T02:01:22;96801.25;;;13.20
71640;BMP280;60912;48.968;10.124;2023-06-01T02:04:00;96792.94;;;13.20
71640;BMP280;60912;48.968;10.124;2023-06-01T02:06:26;96798.31;;;13.18
71640;BMP280;60912;48.968;10.124;2023-06-01T02:08:51;96796.88;;;12.86
71640;BMP280;60912;48.968;10.124;2023-06-01T02:11:17;96801.66;;;12.78
71640;BMP280;60912;48.968;10.124;2023-06-01T02:13:42;96791.16;;;12.77
71640;BMP280;60912;48.968;10.124;2023-06-01T02:16:08;96792.63;;;12.70
71640;BMP280;60912;48.968;10.124;2023-06-01T02:18:33;96797.06;;;12.73
71640;BMP280;60912;48.968;10.124;2023-06-01T02:21:00;96797.44;;;12.70
71640;BMP280;60912;48.968;10.124;2023-06-01T02:23:26;96795.19;;;12.68
71640;BMP280;60912;48.968;10.124;2023-06-01T02:25:51;96796.50;;;12.60
71640;BMP280;60912;48.968;10.124;2023-06-01T02:28:17;96797.44;;;12.62
71640;BMP280;60912;48.968;10.124;2023-06-01T02:30:42;96797.22;;;12.68
71640;BMP280;60912;48.968;10.124;2023-06-01T02:33:07;96790.78;;;12.73
71640;BMP280;60912;48.968;10.124;2023-06-01T02:35:33;96787.66;;;12.76
71640;BMP280;60912;48.968;10.124;2023-06-01T02:37:58;96793.91;;;12.69
71640;BMP280;60912;48.968;10.124;2023-06-01T02:40:23;96789.47;;;12.66
71640;BMP280;60912;48.968;10.124;2023-06-01T02:42:49;96795.75;;;12.59
71640;BMP280;60912;48.968;10.124;2023-06-01T02:45:14;96778.59;;;12.53
71640;BMP280;60912;48.968;10.124;2023-06-01T02:47:39;96786.72;;;12.59
71640;BMP280;60912;48.968;10.124;2023-06-01T02:50:05;96786.38;;;12.62
71640;BMP280;60912;48.968;10.124;2023-06-01T02:52:31;96786.53;;;12.49
71640;BMP280;60912;48.968;10.124;2023-06-01T02:54:56;96790.22;;;12.36
71640;BMP280;60912;48.968;10.124;2023-06-01T02:57:22;96784.50;;;12.34
71640;BMP280;60912;48.968;10.124;2023-06-01T02:59:47;96783.75;;;12.26
71640;BMP280;60912;48.968;10.124;2023-06-01T03:02:13;96776.72;;;12.25
71640;BMP280;60912;48.968;10.124;2023-06-01T03:04:38;96786.88;;;12.23
71640;BMP280;60912;48.968;10.124;2023-06-01T03:07:04;96781.53;;;12.32
71640;BMP280;60912;48.968;10.124;2023-06-01T03:09:30;96781.34;;;12.46
71640;BMP280;60912;48.968;10.124;2023-06-01T03:11:55;96783.59;;;12.47
71640;BMP280;60912;48.968;10.124;2023-06-01T03:14:21;96776.41;;;12.44
71640;BMP280;60912;48.968;10.124;2023-06-01T03:16:46;96774.53;;;12.47
71640;BMP280;60912;48.968;10.124;2023-06-01T03:19:11;96774.00;;;12.48
71640;BMP280;60912;48.968;10.124;2023-06-01T03:21:37;96776.03;;;12.48
71640;BMP280;60912;48.968;10.124;2023-06-01T03:24:02;96774.19;;;12.50
71640;BMP280;60912;48.968;10.124;2023-06-01T03:26:28;96777.09;;;12.44
71640;BMP280;60912;48.968;10.124;2023-06-01T03:28:53;96787.06;;;12.40
71640;BMP280;60912;48.968;10.124;2023-06-01T03:31:19;96784.81;;;12.31
71640;BMP280;60912;48.968;10.124;2023-06-01T03:33:44;96787.75;;;12.18
71640;BMP280;60912;48.968;10.124;2023-06-01T03:36:10;96792.56;;;12.25
71640;BMP280;60912;48.968;10.124;2023-06-01T03:38:35;96791.31;;;12.41
71640;BMP280;60912;48.968;10.124;2023-06-01T03:41:01;96787.84;;;12.63
71640;BMP280;60912;48.968;10.124;2023-06-01T03:43:26;96786.34;;;12.77
71640;BMP280;60912;48.968;10.124;2023-06-01T03:45:52;96800.00;;;12.91
71640;BMP280;60912;48.968;10.124;2023-06-01T03:48:17;96792.94;;;13.35
71640;BMP280;60912;48.968;10.124;2023-06-01T03:50:43;96789.00;;;13.93
71640;BMP280;60912;48.968;10.124;2023-06-01T03:53:08;96791.00;;;14.82
71640;BMP280;60912;48.968;10.124;2023-06-01T03:55:33;96800.81;;;15.96
71640;BMP280;60912;48.968;10.124;2023-06-01T03:58:00;96798.84;;;16.98
71640;BMP280;60912;48.968;10.124;2023-06-01T04:00:28;96799.13;;;17.59
71640;BMP280;60912;48.968;10.124;2023-06-01T04:02:56;96800.84;;;17.84
71640;BMP280;60912;48.968;10.124;2023-06-01T04:05:22;96799.00;;;17.77
71640;BMP280;60912;48.968;10.124;2023-06-01T04:07:50;96792.63;;;18.05
71640;BMP280;60912;48.968;10.124;2023-06-01T04:10:15;96796.09;;;18.15
71640;BMP280;60912;48.968;10.124;2023-06-01T04:12:43;96793.44;;;18.57
71640;BMP280;60912;48.968;10.124;2023-06-01T04:15:12;96785.44;;;19.06
71640;BMP280;60912;48.968;10.124;2023-06-01T04:17:39;96789.19;;;19.64
71640;BMP280;60912;48.968;10.124;2023-06-01T04:20:06;96785.34;;;20.62
71640;BMP280;60912;48.968;10.124;2023-06-01T04:22:33;96793.28;;;21.53
71640;BMP280;60912;48.968;10.124;2023-06-01T04:24:58;96796.66;;;22.57
71640;BMP280;60912;48.968;10.124;2023-06-01T04:27:23;96784.25;;;23.04
71640;BMP280;60912;48.968;10.124;2023-06-01T04:29:50;96796.91;;;22.90
71640;BMP280;60912;48.968;10.124;2023-06-01T04:32:15;96798.22;;;23.32
71640;BMP280;60912;48.968;10.124;2023-06-01T04:34:47;96792.66;;;24.10
71640;BMP280;60912;48.968;10.124;2023-06-01T04:37:15;96792.38;;;24.86
71640;BMP280;60912;48.968;10.124;2023-06-01T04:39:40;96795.78;;;25.73
71640;BMP280;60912;48.968;10.124;2023-06-01T04:42:07;96797.38;;;25.97
71640;BMP280;60912;48.968;10.124;2023-06-01T04:44:33;96808.19;;;25.66
71640;BMP280;60912;48.968;10.124;2023-06-01T04:46:59;96801.31;;;26.49
71640;BMP280;60912;48.968;10.124;2023-06-01T04:49:29;96799.53;;;27.49
71640;BMP280;60912;48.968;10.124;2023-06-01T04:51:55;96803.63;;;28.19
71640;BMP280;60912;48.968;10.124;2023-06-01T04:54:23;96795.09;;;29.02
71640;BMP280;60912;48.968;10.124;2023-06-01T04:56:48;96793.94;;;29.47
71640;BMP280;60912;48.968;10.124;2023-06-01T04:59:14;96795.91;;;29.74
71640;BMP280;60912;48.968;10.124;2023-06-01T05:01:40;96782.91;;;29.98
71640;BMP280;60912;48.968;10.124;2023-06-01T05:04:06;96793.41;;;30.30
71640;BMP280;60912;48.968;10.124;2023-06-01T05:06:32;96792.84;;;30.37
71640;BMP280;60912;48.968;10.124;2023-06-01T05:08:57;96795.16;;;30.95
71640;BMP280;60912;48.968;10.124;2023-06-01T05:11:23;96788.97;;;30.60
71640;BMP280;60912;48.968;10.124;2023-06-01T05:13:48;96795.13;;;29.36
71640;BMP280;60912;48.968;10.124;2023-06-01T05:16:16;96809.00;;;28.34
71640;BMP280;60912;48.968;10.124;2023-06-01T05:18:41;96800.69;;;28.15
71640;BMP280;60912;48.968;10.124;2023-06-01T05:21:07;96807.31;;;27.97
71640;BMP280;60912;48.968;10.124;2023-06-01T05:23:32;96800.81;;;28.74
71640;BMP280;60912;48.968;10.124;2023-06-01T05:25:58;96793.38;;;28.33
71640;BMP280;60912;48.968;10.124;2023-06-01T05:28:31;96799.72;;;27.31
71640;BMP280;60912;48.968;10.124;2023-06-01T05:30:57;96803.91;;;26.63
71640;BMP280;60912;48.968;10.124;2023-06-01T05:33:24;96798.22;;;26.41
71640;BMP280;60912;48.968;10.124;2023-06-01T05:35:49;96794.53;;;26.17
71640;BMP280;60912;48.968;10.124;2023-06-01T05:38:16;96799.34;;;26.13
71640;BMP280;60912;48.968;10.124;2023-06-01T05:40:41;96803.75;;;25.98
71640;BMP280;60912;48.968;10.124;2023-06-01T05:43:06;96800.88;;;25.41
71640;BMP280;60912;48.968;10.124;2023-06-01T05:45:33;96796.34;;;25.52
71640;BMP280;60912;48.968;10.124;2023-06-01T05:47:58;96798.81;;;25.79
71640;BMP280;60912;48.968;10.124;2023-06-01T05:50:24;96796.91;;;25.66
71640;BMP280;60912;48.968;10.124;2023-06-01T05:52:50;96799.41;;;25.75
71640;BMP280;60912;48.968;10.124;2023-06-01T05:55:15;96799.91;;;25.89
71640;BMP280;60912;48.968;10.124;2023-06-01T05:57:40;96806.03;;;26.03
71640;BMP280;60912;48.968;10.124;2023-06-01T06:00:07;96801.84;;;25.48
71640;BMP280;60912;48.968;10.124;2023-06-01T06:02:36;96801.44;;;25.92
71640;BMP280;60912;48.968;10.124;2023-06-01T06:05:01;96799.41;;;26.78
71640;BMP280;60912;48.968;10.124;2023-06-01T06:07:29;96789.81;;;27.08
71640;BMP280;60912;48.968;10.124;2023-06-01T06:09:54;96800.72;;;27.18
71640;BMP280;60912;48.968;10.124;2023-06-01T06:12:19;96796.28;;;26.67
71640;BMP280;60912;48.968;10.124;2023-06-01T06:14:45;96803.00;;;26.37
71640;BMP280;60912;48.968;10.124;2023-06-01T06:17:11;96804.06;;;26.91
71640;BMP280;60912;48.968;10.124;2023-06-01T06:19:36;96805.06;;;26.78
71640;BMP280;60912;48.968;10.124;2023-06-01T06:22:02;96802.97;;;26.56
71640;BMP280;60912;48.968;10.124;2023-06-01T06:24:27;96798.94;;;27.07
71640;BMP280;60912;48.968;10.124;2023-06-01T06:26:52;96792.56;;;27.52
71640;BMP280;60912;48.968;10.124;2023-06-01T06:29:18;96801.56;;;27.22
71640;BMP280;60912;48.968;10.124;2023-06-01T06:31:44;96793.28;;;27.07
71640;BMP280;60912;48.968;10.124;2023-06-01T06:34:11;96791.69;;;27.47
71640;BMP280;60912;48.968;10.124;2023-06-01T06:36:37;96786.53;;;28.15
71640;BMP280;60912;48.968;10.124;2023-06-01T06:39:02;96795.63;;;28.37
71640;BMP280;60912;48.968;10.124;2023-06-01T06:41:28;96795.63;;;28.64
71640;BMP280;60912;48.968;10.124;2023-06-01T06:43:53;96795.84;;;27.93
71640;BMP280;60912;48.968;10.124;2023-06-01T06:46:19;96798.75;;;27.46
71640;BMP280;60912;48.968;10.124;2023-06-01T06:48:44;96797.31;;;27.94
71640;BMP280;60912;48.968;10.124;2023-06-01T06:51:10;96800.25;;;28.24
71640;BMP280;60912;48.968;10.124;2023-06-01T06:53:35;96804.97;;;28.16
71640;BMP280;60912;48.968;10.124;2023-06-01T06:56:01;96802.69;;;28.65
71640;BMP280;60912;48.968;10.124;2023-06-01T06:58:26;96793.38;;;28.33
71640;BMP280;60912;48.968;10.124;2023-06-01T07:00:52;96793.44;;;28.63
71640;BMP280;60912;48.968;10.124;2023-06-01T07:03:17;96796.34;;;28.95
71640;BMP280;60912;48.968;10.124;2023-06-01T07:05:43;96789.53;;;29.08
71640;BMP280;60912;48.968;10.124;2023-06-01T07:08:10;96789.69;;;29.16
71640;BMP280;60912;48.968;10.124;2023-06-01T07:10:36;96782.19;;;29.28
71640;BMP280;60912;48.968;10.124;2023-06-01T07:13:01;96783.28;;;29.13
71640;BMP280;60912;48.968;10.124;2023-06-01T07:15:27;96780.38;;;29.09
71640;BMP280;60912;48.968;10.124;2023-06-01T07:17:52;96778.91;;;28.79
71640;BMP280;60912;48.968;10.124;2023-06-01T07:20:17;96787.91;;;29.30
71640;BMP280;60912;48.968;10.124;2023-06-01T07:22:43;96788.06;;;28.75
71640;BMP280;60912;48.968;10.124;2023-06-01T07:25:09;96780.78;;;29.29
71640;BMP280;60912;48.968;10.124;2023-06-01T07:27:35;96779.34;;;29.28
71640;BMP280;60912;48.968;10.124;2023-06-01T07:30:04;96781.19;;;28.27
71640;BMP280;60912;48.968;10.124;2023-06-01T07:32:30;96776.78;;;28.77
71640;BMP280;60912;48.968;10.124;2023-06-01T07:34:56;96781.88;;;28.55
71640;BMP280;60912;48.968;10.124;2023-06-01T07:37:24;96771.34;;;28.87
71640;BMP280;60912;48.968;10.124;2023-06-01T07:39:52;96780.25;;;28.74
71640;BMP280;60912;48.968;10.124;2023-06-01T07:42:17;96773.34;;;28.53
71640;BMP280;60912;48.968;10.124;2023-06-01T07:44:44;96781.16;;;28.54
71640;BMP280;60912;48.968;10.124;2023-06-01T07:47:10;96771.28;;;29.15
71640;BMP280;60912;48.968;10.124;2023-06-01T07:49:35;96779.03;;;29.12
71640;BMP280;60912;48.968;10.124;2023-06-01T07:52:02;96767.50;;;29.06
71640;BMP280;60912;48.968;10.124;2023-06-01T07:54:27;96761.47;;;29.56
71640;BMP280;60912;48.968;10.124;2023-06-01T07:56:53;96768.50;;;29.88
71640;BMP280;60912;48.968;10.124;2023-06-01T07:59:19;96770.94;;;30.06
71640;BMP280;60912;48.968;10.124;2023-06-01T08:01:46;96766.63;;;29.65
71640;BMP280;60912;48.968;10.124;2023-06-01T08:04:12;96766.03;;;29.03
71640;BMP280;60912;48.968;10.124;2023-06-01T08:06:37;96769.94;;;28.88
71640;BMP280;60912;48.968;10.124;2023-06-01T08:09:03;96768.91;;;28.46
71640;BMP280;60912;48.968;10.124;2023-06-01T08:11:29;96767.41;;;28.43
71640;BMP280;60912;48.968;10.124;2023-06-01T08:13:54;96763.09;;;28.70
71640;BMP280;60912;48.968;10.124;2023-06-01T08:16:20;96773.13;;;28.45
71640;BMP280;60912;48.968;10.124;2023-06-01T08:18:45;96765.28;;;28.71
71640;BMP280;60912;48.968;10.124;2023-06-01T08:21:14;96762.34;;;28.67
71640;BMP280;60912;48.968;10.124;2023-06-01T08:23:40;96766.31;;;29.15
71640;BMP280;60912;48.968;10.124;2023-06-01T08:26:06;96763.41;;;29.13
71640;BMP280;60912;48.968;10.124;2023-06-01T08:28:31;96757.47;;;29.69
71640;BMP280;60912;48.968;10.124;2023-06-01T08:30:58;96762.22;;;29.58
71640;BMP280;60912;48.968;10.124;2023-06-01T08:33:23;96760.66;;;29.87
71640;BMP280;60912;48.968;10.124;2023-06-01T08:35:48;96758.34;;;29.77
71640;BMP280;60912;48.968;10.124;2023-06-01T08:38:14;96754.84;;;29.81
71640;BMP280;60912;48.968;10.124;2023-06-01T08:40:39;96760.56;;;28.82
71640;BMP280;60912;48.968;10.124;2023-06-01T08:43:12;96753.97;;;29.03
71640;BMP280;60912;48.968;10.124;2023-06-01T08:45:40;96756.69;;;29.64
71640;BMP280;60912;48.968;10.124;2023-06-01T08:48:07;96756.13;;;29.36
71640;BMP280;60912;48.968;10.124;2023-06-01T08:50:34;96752.69;;;29.44
71640;BMP280;60912;48.968;10.124;2023-06-01T08:53:01;96756.25;;;28.81
71640;BMP280;60912;48.968;10.124;2023-06-01T08:55:26;96746.75;;;29.31
71640;BMP280;60912;48.968;10.124;2023-06-01T08:57:53;96751.75;;;29.67
71640;BMP280;60912;48.968;10.124;2023-06-01T09:00:19;96757.47;;;29.01
71640;BMP280;60912;48.968;10.124;2023-06-01T09:02:45;96742.28;;;29.20
71640;BMP280;60912;48.968;10.124;2023-06-01T09:05:12;96745.88;;;29.94
71640;BMP280;60912;48.968;10.124;2023-06-01T09:07:38;96747.94;;;29.92
71640;BMP280;60912;48.968;10.124;2023-06-01T09:10:04;96742.09;;;29.46
71640;BMP280;60912;48.968;10.124;2023-06-01T09:12:31;96747.25;;;28.88
71640;BMP280;60912;48.968;10.124;2023-06-01T09:15:12;96741.97;;;29.06
71640;BMP280;60912;48.968;10.124;2023-06-01T09:17:39;96747.09;;;28.82
71640;BMP280;60912;48.968;10.124;2023-06-01T09:20:13;96743.34;;;28.44
71640;BMP280;60912;48.968;10.124;2023-06-01T09:25:05;96745.53;;;29.39
71640;BMP280;60912;48.968;10.124;2023-06-01T09:27:42;96741.44;;;29.85
71640;BMP280;60912;48.968;10.124;2023-06-01T09:30:07;96730.75;;;29.46
71640;BMP280;60912;48.968;10.124;2023-06-01T09:32:33;96734.91;;;29.77
71640;BMP280;60912;48.968;10.124;2023-06-01T09:34:59;96737.84;;;30.23
71640;BMP280;60912;48.968;10.124;2023-06-01T09:37:24;96734.13;;;30.12
71640;BMP280;60912;48.968;10.124;2023-06-01T09:39:50;96740.66;;;29.11
71640;BMP280;60912;48.968;10.124;2023-06-01T09:42:16;96745.47;;;28.73
71640;BMP280;60912;48.968;10.124;2023-06-01T09:44:43;96739.47;;;28.59
71640;BMP280;60912;48.968;10.124;2023-06-01T09:47:12;96733.34;;;29.00
71640;BMP280;60912;48.968;10.124;2023-06-01T09:49:42;96733.06;;;28.88
71640;BMP280;60912;48.968;10.124;2023-06-01T09:54:51;96731.53;;;30.26
71640;BMP280;60912;48.968;10.124;2023-06-01T09:57:21;96726.66;;;30.79
71640;BMP280;60912;48.968;10.124;2023-06-01T09:59:47;96733.44;;;30.57
71640;BMP280;60912;48.968;10.124;2023-06-01T10:02:15;96731.47;;;30.66
71640;BMP280;60912;48.968;10.124;2023-06-01T10:04:44;96716.94;;;30.06
71640;BMP280;60912;48.968;10.124;2023-06-01T10:07:13;96719.94;;;29.74
71640;BMP280;60912;48.968;10.124;2023-06-01T10:09:41;96712.97;;;30.21
71640;BMP280;60912;48.968;10.124;2023-06-01T10:12:07;96717.91;;;29.81
71640;BMP280;60912;48.968;10.124;2023-06-01T10:14:37;96715.06;;;29.81
71640;BMP280;60912;48.968;10.124;2023-06-01T10:17:06;96715.97;;;29.18
71640;BMP280;60912;48.968;10.124;2023-06-01T10:19:31;96710.38;;;29.22
71640;BMP280;60912;48.968;10.124;2023-06-01T10:21:57;96712.50;;;29.21
71640;BMP280;60912;48.968;10.124;2023-06-01T10:24:23;96702.34;;;29.84
71640;BMP280;60912;48.968;10.124;2023-06-01T10:29:40;96699.75;;;30.40
71640;BMP280;60912;48.968;10.124;2023-06-01T10:32:45;96700.31;;;29.88
71640;BMP280;60912;48.968;10.124;2023-06-01T10:40:45;96694.25;;;31.06
71640;BMP280;60912;48.968;10.124;2023-06-01T10:46:01;96696.09;;;30.33
71640;BMP280;60912;48.968;10.124;2023-06-01T10:51:19;96686.34;;;29.63
71640;BMP280;60912;48.968;10.124;2023-06-01T10:53:45;96678.75;;;30.15
71640;BMP280;60912;48.968;10.124;2023-06-01T10:56:21;96685.50;;;30.86
71640;BMP280;60912;48.968;10.124;2023-06-01T11:01:40;96687.81;;;30.99
71640;BMP280;60912;48.968;10.124;2023-06-01T11:04:06;96679.63;;;30.73
71640;BMP280;60912;48.968;10.124;2023-06-01T11:06:34;96680.75;;;30.09
71640;BMP280;60912;48.968;10.124;2023-06-01T11:09:05;96675.47;;;30.33
71640;BMP280;60912;48.968;10.124;2023-06-01T11:14:22;96677.25;;;30.10
71640;BMP280;60912;48.968;10.124;2023-06-01T11:16:49;96666.53;;;30.09
71640;BMP280;60912;48.968;10.124;2023-06-01T11:21:46;96663.09;;;31.18
71640;BMP280;60912;48.968;10.124;2023-06-01T11:24:16;96664.22;;;30.43
71640;BMP280;60912;48.968;10.124;2023-06-01T11:26:50;96659.28;;;30.45
71640;BMP280;60912;48.968;10.124;2023-06-01T11:29:19;96658.53;;;30.91
71640;BMP280;60912;48.968;10.124;2023-06-01T11:34:17;96649.31;;;30.94
71640;BMP280;60912;48.968;10.124;2023-06-01T11:36:50;96653.13;;;31.17
71640;BMP280;60912;48.968;10.124;2023-06-01T11:39:21;96643.19;;;31.16
71640;BMP280;60912;48.968;10.124;2023-06-01T11:41:52;96645.94;;;31.10
71640;BMP280;60912;48.968;10.124;2023-06-01T11:44:18;96635.31;;;31.14
71640;BMP280;60912;48.968;10.124;2023-06-01T11:46:54;96632.84;;;31.48
71640;BMP280;60912;48.968;10.124;2023-06-01T11:49:21;96636.47;;;31.57
71640;BMP280;60912;48.968;10.124;2023-06-01T11:51:47;96632.84;;;31.48
71640;BMP280;60912;48.968;10.124;2023-06-01T11:54:13;96630.53;;;31.33
71640;BMP280;60912;48.968;10.124;2023-06-01T11:56:38;96631.41;;;30.86
71640;BMP280;60912;48.968;10.124;2023-06-01T11:59:08;96629.44;;;30.98
71640;BMP280;60912;48.968;10.124;2023-06-01T12:01:47;96629.47;;;30.48
71640;BMP280;60912;48.968;10.124;2023-06-01T12:04:14;96632.75;;;30.31
71640;BMP280;60912;48.968;10.124;2023-06-01T12:06:39;96636.22;;;30.73
71640;BMP280;60912;48.968;10.124;2023-06-01T12:09:05;96636.66;;;31.07
71640;BMP280;60912;48.968;10.124;2023-06-01T12:11:32;96634.03;;;30.69
71640;BMP280;60912;48.968;10.124;2023-06-01T12:13:58;96626.97;;;30.72
71640;BMP280;60912;48.968;10.124;2023-06-01T12:16:24;96626.94;;;30.21
71640;BMP280;60912;48.968;10.124;2023-06-01T12:18:51;96621.16;;;30.62
71640;BMP280;60912;48.968;10.124;2023-06-01T12:21:16;96625.81;;;30.92
71640;BMP280;60912;48.968;10.124;2023-06-01T12:23:43;96613.97;;;31.17
71640;BMP280;60912;48.968;10.124;2023-06-01T12:26:08;96616.50;;;30.89
71640;BMP280;60912;48.968;10.124;2023-06-01T12:28:48;96608.19;;;31.07
71640;BMP280;60912;48.968;10.124;2023-06-01T12:31:16;96613.47;;;31.33
71640;BMP280;60912;48.968;10.124;2023-06-01T12:33:44;96613.56;;;31.47
71640;BMP280;60912;48.968;10.124;2023-06-01T12:36:11;96603.06;;;31.64
71640;BMP280;60912;48.968;10.124;2023-06-01T12:38:52;96594.25;;;31.35
71640;BMP280;60912;48.968;10.124;2023-06-01T12:41:18;96601.63;;;30.95
71640;BMP280;60912;48.968;10.124;2023-06-01T12:43:45;96599.53;;;30.97
71640;BMP280;60912;48.968;10.124;2023-06-01T12:48:46;96603.94;;;31.08
71640;BMP280;60912;48.968;10.124;2023-06-01T12:51:13;96590.81;;;30.83
71640;BMP280;60912;48.968;10.124;2023-06-01T12:53:40;96589.44;;;30.86
71640;BMP280;60912;48.968;10.124;2023-06-01T12:56:07;96583.91;;;31.00
71640;BMP280;60912;48.968;10.124;2023-06-01T12:58:33;96585.56;;;31.21
71640;BMP280;60912;48.968;10.124;2023-06-01T13:00:58;96580.63;;;31.26
71640;BMP280;60912;48.968;10.124;2023-06-01T13:03:24;96580.53;;;31.16
71640;BMP280;60912;48.968;10.124;2023-06-01T13:05:49;96579.47;;;30.31
71640;BMP280;60912;48.968;10.124;2023-06-01T13:08:16;96585.69;;;30.71
71640;BMP280;60912;48.968;10.124;2023-06-01T13:10:43;96576.59;;;30.27
71640;BMP280;60912;48.968;10.124;2023-06-01T13:13:08;96583.41;;;30.60
71640;BMP280;60912;48.968;10.124;2023-06-01T13:15:34;96576.28;;;30.59
71640;BMP280;60912;48.968;10.124;2023-06-01T13:18:01;96579.81;;;30.57
71640;BMP280;60912;48.968;10.124;2023-06-01T13:20:26;96580.66;;;30.68
71640;BMP280;60912;48.968;10.124;2023-06-01T13:22:52;96574.78;;;30.52
71640;BMP280;60912;48.968;10.124;2023-06-01T13:25:18;96578.16;;;30.38
71640;BMP280;60912;48.968;10.124;2023-06-01T13:27:45;96573.66;;;30.23
71640;BMP280;60912;48.968;10.124;2023-06-01T13:30:11;96565.59;;;30.55
71640;BMP280;60912;48.968;10.124;2023-06-01T13:32:37;96569.81;;;30.54
71640;BMP280;60912;48.968;10.124;2023-06-01T13:35:03;96579.94;;;30.67
71640;BMP280;60912;48.968;10.124;2023-06-01T13:37:28;96575.84;;;30.81
71640;BMP280;60912;48.968;10.124;2023-06-01T13:39:54;96577.50;;;30.42
71640;BMP280;60912;48.968;10.124;2023-06-01T13:42:19;96573.00;;;30.25
71640;BMP280;60912;48.968;10.124;2023-06-01T13:44:45;96571.09;;;30.41
71640;BMP280;60912;48.968;10.124;2023-06-01T13:47:14;96570.97;;;30.33
71640;BMP280;60912;48.968;10.124;2023-06-01T13:49:41;96555.34;;;30.34
71640;BMP280;60912;48.968;10.124;2023-06-01T13:52:07;96553.47;;;30.01
71640;BMP280;60912;48.968;10.124;2023-06-01T13:54:33;96547.97;;;30.17
71640;BMP280;60912;48.968;10.124;2023-06-01T13:56:59;96559.47;;;29.77
71640;BMP280;60912;48.968;10.124;2023-06-01T13:59:24;96548.31;;;29.89
71640;BMP280;60912;48.968;10.124;2023-06-01T14:01:50;96542.88;;;30.08
71640;BMP280;60912;48.968;10.124;2023-06-01T14:04:16;96540.34;;;30.28
71640;BMP280;60912;48.968;10.124;2023-06-01T14:06:42;96535.72;;;30.56
71640;BMP280;60912;48.968;10.124;2023-06-01T14:09:07;96530.19;;;30.66
71640;BMP280;60912;48.968;10.124;2023-06-01T14:11:33;96528.31;;;30.91
71640;BMP280;60912;48.968;10.124;2023-06-01T14:13:58;96528.94;;;30.84
71640;BMP280;60912;48.968;10.124;2023-06-01T14:16:23;96532.09;;;30.50
71640;BMP280;60912;48.968;10.124;2023-06-01T14:18:49;96539.72;;;30.35
71640;BMP280;60912;48.968;10.124;2023-06-01T14:21:15;96535.53;;;29.90
71640;BMP280;60912;48.968;10.124;2023-06-01T14:23:40;96535.28;;;29.74
71640;BMP280;60912;48.968;10.124;2023-06-01T14:26:08;96530.69;;;29.55
71640;BMP280;60912;48.968;10.124;2023-06-01T14:28:34;96528.81;;;29.28
71640;BMP280;60912;48.968;10.124;2023-06-01T14:30:59;96522.59;;;29.38